Time;durP1;ratioP1;P1;durP2;ratioP2;P2;SDS_P1;SDS_P2;PMS_P1;PMS_P2;Temp;Humidity;BMP_temperature;BMP_pressure;BME280_temperature;BME280_humidity;BME280_pressure;Samples;Min_cycle;Max_cycle;Signal;HPM_P1;HPM_P2
2023/08/28 00:01:09;;;;;;;2.35;1.45;;;;;;;8.94;68.15;95234.72;6247907;28;20053;-70
2023/08/28 00:04:14;;;;;;;2.33;1.67;;;;;;;8.97;68.23;95221.38;6247525;28;20512;-70
2023/08/28 00:07:17;;;;;;;1.80;1.60;;;;;;;9.02;68.32;95222.75;6248382;28;20045;-70
2023/08/28 00:10:19;;;;;;;2.40;1.40;;;;;;;8.99;68.42;95206.31;6247878;28;20050;-70
2023/08/28 00:13:21;;;;;;;3.00;2.25;;;;;;;9.06;68.51;95211.88;6230167;28;20427;-70
2023/08/28 00:16:25;;;;;;;1.75;1.40;;;;;;;9.06;68.80;95198.78;6247882;28;20539;-70
2023/08/28 00:19:29;;;;;;;3.28;2.50;;;;;;;8.75;69.26;95190.06;6248307;28;20436;-71
2023/08/28 00:22:32;;;;;;;2.72;1.85;;;;;;;8.83;70.16;95197.25;6247262;28;20520;-70
2023/08/28 00:25:38;;;;;;;3.30;2.30;;;;;;;8.68;70.68;95184.47;6247325;28;20431;-70
2023/08/28 00:28:45;;;;;;;2.88;1.92;;;;;;;8.74;71.17;95188.38;6230265;28;20049;-70
2023/08/28 00:31:49;;;;;;;3.00;2.25;;;;;;;8.69;72.18;95185.31;6247727;28;20049;-70
2023/08/28 00:34:56;;;;;;;3.13;2.22;;;;;;;8.58;73.47;95188.00;6230066;28;20045;-69
2023/08/28 00:38:03;;;;;;;3.83;2.40;;;;;;;8.40;74.53;95175.47;6247418;28;20049;-69
2023/08/28 00:41:04;;;;;;;1.73;1.58;;;;;;;8.25;75.40;95166.25;6246436;28;20140;-70
2023/08/28 00:44:08;;;;;;;2.85;2.38;;;;;;;8.38;76.06;95156.41;6229637;28;20121;-69
2023/08/28 00:47:15;;;;;;;3.88;2.47;;;;;;;8.38;76.99;95171.28;6247054;28;20049;-69
2023/08/28 00:50:16;;;;;;;3.08;2.45;;;;;;;8.27;77.51;95164.34;6246469;28;20690;-69
2023/08/28 00:53:21;;;;;;;2.70;2.40;;;;;;;8.29;77.95;95167.63;6245889;28;20546;-70
2023/08/28 00:56:24;;;;;;;3.03;2.40;;;;;;;8.33;78.31;95159.41;6246617;28;20080;-69
2023/08/28 00:59:32;;;;;;;6.25;3.28;;;;;;;8.34;78.80;95149.75;6247396;28;20045;-69
2023/08/28 01:02:34;;;;;;;3.03;2.70;;;;;;;8.40;78.94;95148.44;6246650;28;20088;-69
2023/08/28 01:06:19;;;;;;;4.65;2.70;;;;;;;8.45;79.31;95141.03;6246871;28;20057;-69
2023/08/28 01:09:40;;;;;;;4.25;2.95;;;;;;;8.42;79.51;95121.13;6149088;28;20043;-70
2023/08/28 01:13:02;;;;;;;3.97;2.85;;;;;;;8.45;80.19;95135.78;6246708;28;20042;-69
2023/08/28 01:16:10;;;;;;;4.45;3.15;;;;;;;8.36;79.97;95103.28;6246785;28;20076;-69
2023/08/28 01:19:29;;;;;;;3.28;2.88;;;;;;;8.70;79.90;95139.78;6246456;28;20041;-69
2023/08/28 01:22:38;;;;;;;5.40;3.35;;;;;;;8.57;80.44;95128.66;6246479;28;20045;-69
2023/08/28 01:25:42;;;;;;;3.45;3.00;;;;;;;8.68;80.15;95120.72;6246413;28;20516;-69
2023/08/28 01:28:49;;;;;;;4.90;3.65;;;;;;;8.56;80.75;95124.41;6246604;28;20049;-70
2023/08/28 01:31:53;;;;;;;5.50;3.30;;;;;;;8.68;80.97;95125.97;6245356;28;20049;-69
2023/08/28 01:34:56;;;;;;;6.43;3.72;;;;;;;8.67;81.02;95119.06;6246323;28;20044;-69
2023/08/28 01:38:19;;;;;;;4.82;3.50;;;;;;;8.76;81.38;95123.53;6246311;28;20042;-69
2023/08/28 01:41:23;;;;;;;5.75;3.47;;;;;;;8.64;81.67;95120.16;6245684;28;20521;-69
2023/08/28 01:44:32;;;;;;;5.43;3.83;;;;;;;8.71;81.46;95115.22;6246237;28;20099;-69
2023/08/28 01:47:38;;;;;;;6.03;3.72;;;;;;;8.77;81.30;95109.44;6246327;28;20042;-68
2023/08/28 01:50:39;;;;;;;;;;;;;;;8.78;81.08;95098.00;6245364;28;20046;-69
2023/08/28 01:53:42;;;;;;;4.57;3.42;;;;;;;8.72;81.80;95088.06;6245817;28;20383;-69
2023/08/28 01:56:44;;;;;;;5.35;3.90;;;;;;;8.62;82.21;95097.66;6244659;28;20397;-71
2023/08/28 01:59:50;;;;;;;5.60;3.50;;;;;;;8.64;82.47;95098.38;6245895;28;20516;-69
2023/08/28 02:02:54;;;;;;;4.18;3.58;;;;;;;8.64;82.89;95087.88;6245467;28;20049;-69
2023/08/28 02:05:56;;;;;;;6.63;4.88;;;;;;;8.75;82.54;95085.16;6244640;28;20566;-69
2023/08/28 02:09:00;;;;;;;4.70;3.83;;;;;;;8.77;82.27;95077.97;6245222;28;20053;-69
2023/08/28 02:12:05;;;;;;;3.17;2.78;;;;;;;8.72;82.98;95064.44;6245693;28;20244;-70
2023/08/28 02:15:09;;;;;;;5.25;3.85;;;;;;;8.78;82.49;95069.16;6227782;28;20512;-71
2023/08/28 02:18:18;;;;;;;4.72;3.40;;;;;;;8.74;82.72;95075.63;6245605;28;20049;-71
2023/08/28 02:21:24;;;;;;;4.68;3.80;;;;;;;8.82;82.00;95070.53;6245026;28;20052;-69
2023/08/28 02:24:27;;;;;;;4.35;3.88;;;;;;;8.85;81.78;95065.03;6245118;28;20049;-69
2023/08/28 02:27:31;;;;;;;;;;;;;;;8.77;82.17;95070.09;6245524;28;20053;-69
2023/08/28 02:30:32;;;;;;;5.72;3.65;;;;;;;8.82;82.54;95069.72;6244505;28;19917;-69
2023/08/28 02:33:37;;;;;;;6.15;4.53;;;;;;;8.82;82.33;95053.97;6244885;28;20045;-69
2023/08/28 02:36:40;;;;;;;5.40;3.95;;;;;;;8.85;82.59;95062.41;6244693;28;20037;-68
2023/08/28 02:39:44;;;;;;;4.40;4.00;;;;;;;8.92;82.67;95054.84;6244944;28;20080;-69
2023/08/28 02:42:49;;;;;;;4.82;3.75;;;;;;;8.84;83.26;95057.31;6210481;28;20104;-69
2023/08/28 02:45:54;;;;;;;6.78;4.25;;;;;;;8.98;82.80;95054.31;6244948;28;20550;-69
2023/08/28 02:48:55;;;;;;;5.65;4.40;;;;;;;9.01;83.07;95063.72;6244520;28;20607;-70
2023/08/28 02:51:59;;;;;;;4.90;3.70;;;;;;;9.07;83.07;95052.69;6244549;28;20049;-70
2023/08/28 02:55:03;;;;;;;5.10;4.15;;;;;;;9.22;82.82;95048.69;6244335;28;20049;-69
2023/08/28 02:58:10;;;;;;;;;;;;;;;9.36;82.63;95037.78;6244678;28;20049;-70
2023/08/28 03:01:13;;;;;;;4.93;3.92;;;;;;;9.23;82.97;95042.50;6244412;28;19921;-69
2023/08/28 03:04:17;;;;;;;4.47;3.72;;;;;;;9.07;83.80;95031.69;6243671;28;20052;-70
2023/08/28 03:07:21;;;;;;;3.58;2.85;;;;;;;9.35;83.35;95046.63;6244342;28;20045;-69
2023/08/28 03:10:34;;;;;;;4.85;4.35;;;;;;;9.22;83.76;95051.31;6244269;28;20607;-70
2023/08/28 03:13:41;;;;;;;4.82;4.32;;;;;;;9.33;83.91;95040.69;6244207;28;20045;-69
2023/08/28 03:16:47;;;;;;;5.80;4.57;;;;;;;9.28;83.87;95040.25;6243858;28;20045;-71
2023/08/28 03:19:53;;;;;;;4.82;4.03;;;;;;;9.33;84.25;95039.88;6243945;28;20038;-69
2023/08/28 03:22:58;;;;;;;5.45;4.82;;;;;;;9.40;84.40;95039.19;6243678;28;20053;-69
2023/08/28 03:25:59;;;;;;;5.90;4.90;;;;;;;9.42;84.82;95042.47;6243835;28;20426;-69
2023/08/28 03:29:04;;;;;;;4.40;3.95;;;;;;;9.42;85.19;95031.97;6243243;28;20057;-69
2023/08/28 03:32:07;;;;;;;4.60;4.20;;;;;;;9.53;84.46;95040.69;6244109;28;20095;-69
2023/08/28 03:35:11;;;;;;;7.07;6.03;;;;;;;9.59;84.86;95040.16;6244018;28;20045;-69
2023/08/28 03:38:12;;;;;;;5.30;4.70;;;;;;;9.67;85.08;95035.03;6243961;28;20497;-69
2023/08/28 03:41:13;;;;;;;5.53;4.78;;;;;;;9.70;84.71;95045.25;6243302;28;20056;-69
2023/08/28 03:44:14;;;;;;;6.13;4.68;;;;;;;9.78;84.33;95034.06;6243301;28;20053;-69
2023/08/28 03:47:18;;;;;;;5.03;4.25;;;;;;;9.96;83.43;95042.06;6226162;28;20046;-69
2023/08/28 03:50:22;;;;;;;;;;;;;;;10.02;83.24;95044.13;6226054;28;20060;-69
2023/08/28 03:53:27;;;;;;;4.67;3.80;;;;;;;10.14;82.72;95043.00;6243281;28;19928;-69
2023/08/28 03:56:29;;;;;;;5.05;4.55;;;;;;;10.07;82.85;95041.91;6243529;28;20044;-70
2023/08/28 03:59:30;;;;;;;5.60;4.38;;;;;;;10.09;83.65;95034.72;6225720;28;20128;-69
2023/08/28 04:02:39;;;;;;;5.68;4.40;;;;;;;10.26;83.23;95041.88;6226421;28;20085;-70
2023/08/28 04:05:44;;;;;;;5.68;3.75;;;;;;;10.32;82.16;95020.28;6243372;28;20136;-69
2023/08/28 04:08:46;;;;;;;5.47;4.17;;;;;;;10.40;81.95;95027.47;6243713;28;20463;-70
2023/08/28 04:11:52;;;;;;;5.25;4.18;;;;;;;10.40;81.96;95026.66;6243803;28;20436;-70
2023/08/28 04:14:57;;;;;;;4.47;3.72;;;;;;;10.54;82.25;95026.19;6245657;28;20041;-69
2023/08/28 04:17:59;;;;;;;3.22;2.92;;;;;;;10.60;82.30;95022.97;6247910;28;20049;-69
2023/08/28 04:21:04;;;;;;;4.07;3.67;;;;;;;10.70;82.66;95015.88;6229854;28;20048;-69
2023/08/28 04:24:11;;;;;;;3.88;3.47;;;;;;;11.01;82.00;95020.81;6247572;28;20427;-71
2023/08/28 04:27:15;;;;;;;7.30;4.70;;;;;;;11.17;81.75;95012.28;6247902;28;20037;-69
2023/08/28 04:30:19;;;;;;;3.78;3.20;;;;;;;11.45;81.04;95008.59;6230145;28;20041;-71
2023/08/28 04:33:26;;;;;;;3.08;2.78;;;;;;;11.81;79.26;95005.13;6247327;28;20041;-69
2023/08/28 04:36:32;;;;;;;2.50;2.05;;;;;;;12.06;77.53;95012.28;6247270;28;20127;-69
2023/08/28 04:39:39;;;;;;;2.88;2.47;;;;;;;12.38;77.18;95005.53;6230282;28;20037;-71
2023/08/28 04:42:42;;;;;;;2.08;1.73;;;;;;;12.67;75.41;95010.47;6246598;28;20061;-69
2023/08/28 04:45:48;;;;;;;2.45;1.75;;;;;;;12.82;73.52;95018.59;6247495;28;20042;-71
2023/08/28 04:48:52;;;;;;;2.05;1.10;;;;;;;13.06;72.68;95015.25;6246918;28;20062;-71
2023/08/28 04:51:58;;;;;;;1.25;1.05;;;;;;;13.61;70.36;95030.59;6246932;28;20049;-71
2023/08/28 04:55:02;;;;;;;1.20;1.08;;;;;;;13.77;69.36;95023.69;6247095;28;20508;-69
2023/08/28 04:58:06;;;;;;;1.15;0.82;;;;;;;13.88;68.84;95020.72;6247318;28;20156;-71
2023/08/28 05:01:10;;;;;;;;;;;;;;;13.90;69.08;95019.56;6245592;28;20054;-69
2023/08/28 05:04:13;;;;;;;0.90;0.70;;;;;;;13.66;67.36;95016.88;6256396;28;19925;-68
2023/08/28 05:07:14;;;;;;;1.17;0.80;;;;;;;13.47;66.69;95013.56;6254821;28;20081;-72
2023/08/28 05:10:18;;;;;;;;;;;;;;;13.43;65.60;95028.09;6258375;28;20041;-68
2023/08/28 05:13:22;;;;;;;0.57;0.50;;;;;;;13.22;64.88;95014.50;6250705;28;19917;-68
2023/08/28 05:16:28;;;;;;;1.17;0.80;;;;;;;13.28;65.27;95024.44;6261308;28;20528;-68
2023/08/28 05:19:35;;;;;;;1.30;1.00;;;;;;;13.28;65.14;95021.78;6253824;28;20508;-67
2023/08/28 05:22:40;;;;;;;1.65;1.10;;;;;;;13.20;65.29;95014.63;6266987;28;20582;-68
2023/08/28 05:25:44;;;;;;;1.17;1.00;;;;;;;13.43;64.57;95020.16;6268247;28;20091;-70
2023/08/28 05:28:50;;;;;;;1.00;0.90;;;;;;;13.52;65.16;95020.19;6239504;28;20452;-71
2023/08/28 05:31:54;;;;;;;1.40;0.70;;;;;;;14.07;63.74;95008.97;6248679;28;20045;-76
2023/08/28 05:35:00;;;;;;;;;;;;;;;14.64;62.39;95011.53;6265369;28;20049;-72
2023/08/28 05:38:03;;;;;;;0.60;0.50;;;;;;;15.22;60.90;95007.66;6261380;28;20371;-73
2023/08/28 05:41:09;;;;;;;0.85;0.45;;;;;;;15.80;58.58;95000.22;6262475;28;20554;-74
2023/08/28 05:44:14;;;;;;;0.60;0.55;;;;;;;16.07;56.12;95004.13;6257397;28;20052;-73
2023/08/28 05:47:22;;;;;;;0.73;0.50;;;;;;;16.87;54.73;95002.69;6240594;28;20037;-66
2023/08/28 05:50:27;;;;;;;0.50;0.50;;;;;;;17.36;51.73;94999.41;6263506;28;20044;-67
2023/08/28 05:53:35;;;;;;;0.60;0.40;;;;;;;17.03;52.38;94989.19;6258748;28;20423;-67
2023/08/28 05:56:36;;;;;;;0.45;0.30;;;;;;;16.79;51.92;94997.47;6262708;28;20076;-67
2023/08/28 05:59:38;;;;;;;0.73;0.47;;;;;;;16.70;51.15;95003.84;6267255;28;20523;-68
2023/08/28 06:02:40;;;;;;;0.80;0.60;;;;;;;16.68;51.21;95000.56;6260351;28;20428;-68
2023/08/28 06:05:48;;;;;;;0.70;0.50;;;;;;;17.01;51.50;95001.88;6267256;28;20104;-68
2023/08/28 06:08:50;;;;;;;;;;;;;;;17.65;51.35;94992.34;6267574;28;20504;-66
2023/08/28 06:11:55;;;;;;;0.55;0.40;;;;;;;17.69;48.30;94988.28;6255827;28;20372;-66
2023/08/28 06:15:02;;;;;;;0.80;0.63;;;;;;;17.36;47.14;94977.31;6259924;28;20432;-66
2023/08/28 06:18:07;;;;;;;0.40;0.30;;;;;;;17.65;46.96;94981.72;6255455;28;20048;-66
2023/08/28 06:21:09;;;;;;;0.60;0.40;;;;;;;19.90;43.33;94986.75;6260461;28;20071;-66
2023/08/28 06:24:12;;;;;;;0.47;0.22;;;;;;;21.35;40.36;94979.59;6253463;28;20512;-67
2023/08/28 06:27:14;;;;;;;0.57;0.38;;;;;;;22.25;37.90;94979.53;6260749;28;20041;-67
2023/08/28 06:30:19;;;;;;;0.40;0.30;;;;;;;22.80;36.58;94982.31;6259456;28;20045;-67
2023/08/28 06:33:25;;;;;;;1.50;0.50;;;;;;;21.98;37.27;94989.56;6250941;28;20504;-67
2023/08/28 06:36:26;;;;;;;0.30;0.20;;;;;;;20.82;38.16;94977.09;6254630;28;20508;-67
2023/08/28 06:39:32;;;;;;;0.40;0.40;;;;;;;19.65;40.10;94968.69;6260893;28;20040;-67
2023/08/28 06:42:36;;;;;;;0.60;0.43;;;;;;;18.78;44.40;94978.16;6262239;28;20431;-67
2023/08/28 06:45:42;;;;;;;0.73;0.35;;;;;;;18.45;46.76;94974.41;6258786;28;20036;-67
2023/08/28 06:48:48;;;;;;;0.65;0.60;;;;;;;19.13;44.87;94966.63;6249154;28;20041;-67
2023/08/28 06:51:51;;;;;;;0.90;0.40;;;;;;;20.47;42.49;94963.97;6262538;28;21847;-69
2023/08/28 06:55:00;;;;;;;0.28;0.20;;;;;;;21.20;40.75;94965.66;6263437;28;20045;-67
2023/08/28 06:58:06;;;;;;;0.68;0.40;;;;;;;21.45;39.80;94958.56;6258847;28;20049;-67
2023/08/28 07:01:12;;;;;;;0.32;0.30;;;;;;;21.37;38.78;94949.97;6262283;28;20052;-67
2023/08/28 07:04:18;;;;;;;0.50;0.32;;;;;;;21.31;39.99;94946.25;6249766;28;20054;-68
2023/08/28 07:07:23;;;;;;;0.60;0.40;;;;;;;21.04;38.93;94946.38;6235813;28;20509;-67
2023/08/28 07:10:28;;;;;;;0.93;0.35;;;;;;;20.27;39.44;94944.47;6235050;28;20543;-67
2023/08/28 07:13:32;;;;;;;0.88;0.50;;;;;;;19.41;40.58;94898.00;6232373;28;20056;-67
2023/08/28 07:16:39;;;;;;;0.60;0.32;;;;;;;19.70;40.75;94955.56;6231667;28;20037;-67
2023/08/28 07:19:41;;;;;;;0.43;0.32;;;;;;;19.81;40.76;94945.28;6238265;28;20071;-67
2023/08/28 07:22:45;;;;;;;0.77;0.50;;;;;;;20.02;40.23;94942.44;6234920;28;20420;-67
2023/08/28 07:25:47;;;;;;;0.68;0.32;;;;;;;22.23;35.93;94944.09;6237513;28;20416;-67
2023/08/28 07:28:48;;;;;;;0.40;0.30;;;;;;;22.65;34.20;94941.66;6234596;28;20045;-67
2023/08/28 07:31:49;;;;;;;0.73;0.32;;;;;;;24.08;32.97;94945.63;6235439;28;20123;-67
2023/08/28 07:34:51;;;;;;;0.45;0.30;;;;;;;25.14;31.09;94937.63;6229868;28;20045;-66
2023/08/28 07:37:55;;;;;;;0.30;0.30;;;;;;;24.81;30.88;94932.84;6233727;28;20108;-67
2023/08/28 07:40:56;;;;;;;0.45;0.30;;;;;;;23.79;31.90;94936.56;6237230;28;20053;-67
2023/08/28 07:44:00;;;;;;;0.22;0.20;;;;;;;22.72;33.05;94931.66;6235112;28;20053;-67
2023/08/28 07:47:05;;;;;;;0.13;0.10;;;;;;;21.08;35.98;94934.22;6229757;28;20057;-67
2023/08/28 07:50:09;;;;;;;0.20;0.20;;;;;;;19.98;37.13;94922.50;6237604;28;20128;-67
2023/08/28 07:53:14;;;;;;;0.10;0.10;;;;;;;19.06;38.22;94913.28;6229769;28;20049;-67
2023/08/28 07:56:16;;;;;;;0.38;0.32;;;;;;;18.20;40.66;94916.28;6240533;28;20072;-67
2023/08/28 07:59:19;;;;;;;0.65;0.40;;;;;;;17.74;42.19;94920.19;6239883;28;20136;-67
2023/08/28 08:02:21;;;;;;;;;;;;;;;17.26;42.79;94930.59;6235454;28;20611;-66
2023/08/28 08:05:27;;;;;;;0.30;0.30;;;;;;;16.42;46.66;94932.81;6230037;28;19921;-67
2023/08/28 08:08:31;;;;;;;2.47;0.40;;;;;;;15.71;51.38;94935.81;6233316;28;20432;-67
2023/08/28 08:11:32;;;;;;;0.30;0.30;;;;;;;15.61;54.61;94929.88;6233052;28;20037;-68
2023/08/28 08:14:39;;;;;;;2.58;0.82;;;;;;;16.90;53.11;94935.06;6237700;28;20404;-66
2023/08/28 08:17:46;;;;;;;1.40;0.63;;;;;;;17.48;49.79;94918.13;6237079;28;20068;-67
2023/08/28 08:20:50;;;;;;;0.50;0.50;;;;;;;17.57;49.16;94926.81;6233192;28;20045;-67
2023/08/28 08:23:52;;;;;;;0.57;0.50;;;;;;;17.94;47.70;94939.03;6235187;28;20064;-66
2023/08/28 08:26:58;;;;;;;0.63;0.30;;;;;;;18.37;45.99;94928.31;6238930;28;20127;-67
2023/08/28 08:30:01;;;;;;;0.82;0.50;;;;;;;19.90;43.94;94934.22;6241147;28;20049;-67
2023/08/28 08:33:04;;;;;;;0.43;0.30;;;;;;;20.68;41.16;94930.06;6227081;28;20123;-67
2023/08/28 08:36:06;;;;;;;0.40;0.40;;;;;;;20.52;40.98;94932.13;6229088;28;20771;-67
2023/08/28 08:39:08;;;;;;;1.13;0.30;;;;;;;20.22;40.62;94930.94;6233136;28;20536;-67
2023/08/28 08:42:12;;;;;;;0.93;0.20;;;;;;;20.12;40.80;94926.00;6219098;28;20124;-68
2023/08/28 08:45:15;;;;;;;1.02;0.30;;;;;;;19.63;41.50;94927.19;6238820;28;20037;-67
2023/08/28 08:48:21;;;;;;;1.38;0.30;;;;;;;18.71;43.63;94939.97;6234817;28;20041;-67
2023/08/28 08:51:25;;;;;;;0.55;0.40;;;;;;;17.62;47.09;94950.19;6233857;28;20038;-67
2023/08/28 08:54:34;;;;;;;2.50;0.47;;;;;;;15.92;51.95;94974.09;6243286;28;20088;-66
2023/08/28 08:57:42;;;;;;;4.70;1.05;;;;;;;14.02;57.54;94974.28;6230828;28;20037;-68
2023/08/28 09:00:49;;;;;;;6.38;0.88;;;;;;;12.76;61.89;94971.75;6235944;28;20416;-68
2023/08/28 09:03:53;;;;;;;0.47;0.47;;;;;;;12.11;64.53;94951.16;6236208;28;20045;-67
2023/08/28 09:06:55;;;;;;;0.85;0.40;;;;;;;12.02;66.58;94974.00;6261612;28;20049;-66
2023/08/28 09:10:00;;;;;;;0.68;0.50;;;;;;;11.86;68.30;94969.47;6262691;28;20072;-66
2023/08/28 09:13:02;;;;;;;0.50;0.43;;;;;;;11.78;68.57;94964.09;6258237;28;20051;-66
2023/08/28 09:16:04;;;;;;;0.45;0.40;;;;;;;11.67;69.21;94954.63;6255654;28;20070;-66
2023/08/28 09:19:08;;;;;;;0.30;0.30;;;;;;;11.59;69.50;94961.66;6260834;28;20044;-68
2023/08/28 09:22:10;;;;;;;3.67;1.95;;;;;;;11.92;70.35;94973.28;6261084;28;20499;-68
2023/08/28 09:25:18;;;;;;;0.77;0.60;;;;;;;14.44;66.29;94963.44;6259328;28;20537;-67
2023/08/28 09:28:23;;;;;;;0.60;0.40;;;;;;;14.24;65.28;94952.41;6262278;28;20120;-66
2023/08/28 09:31:32;;;;;;;0.70;0.47;;;;;;;13.57;66.50;94954.47;6261032;28;20040;-66
2023/08/28 09:34:40;;;;;;;0.45;0.30;;;;;;;13.59;65.98;94969.16;6258899;28;20421;-67
2023/08/28 09:37:42;;;;;;;0.70;0.30;;;;;;;13.54;64.87;94962.72;6264816;28;20292;-67
2023/08/28 09:40:46;;;;;;;0.40;0.40;;;;;;;13.63;63.76;94961.72;6259793;28;20130;-66
2023/08/28 09:43:52;;;;;;;0.35;0.20;;;;;;;13.79;62.60;94964.38;6258097;28;20049;-66
2023/08/28 09:46:57;;;;;;;0.20;0.20;;;;;;;14.24;61.93;94957.69;6251804;28;20044;-67
2023/08/28 09:50:03;;;;;;;0.80;0.50;;;;;;;15.29;59.95;94967.22;6262417;28;20496;-67
2023/08/28 09:53:15;;;;;;;0.20;0.20;;;;;;;16.45;55.50;94966.94;6267512;28;20048;-67
2023/08/28 09:56:18;;;;;;;0.68;0.30;;;;;;;17.15;53.35;94965.63;6258944;28;20587;-67
2023/08/28 09:59:27;;;;;;;0.40;0.40;;;;;;;17.22;51.69;94966.53;6255720;28;20037;-67
2023/08/28 10:02:34;;;;;;;1.27;0.55;;;;;;;17.70;48.56;94968.69;6262317;28;20419;-68
2023/08/28 10:05:37;;;;;;;0.52;0.22;;;;;;;18.95;44.66;94977.84;6244514;28;20056;-67
2023/08/28 10:08:45;;;;;;;0.98;0.20;;;;;;;19.00;44.04;94964.75;6231672;28;20033;-68
2023/08/28 10:11:50;;;;;;;0.68;0.30;;;;;;;18.27;45.27;94970.41;6229102;28;20038;-68
2023/08/28 10:14:54;;;;;;;0.30;0.30;;;;;;;18.02;45.78;94974.50;6234680;28;20188;-69
2023/08/28 10:18:00;;;;;;;0.52;0.20;;;;;;;17.68;44.93;94981.34;6229764;28;20054;-68
2023/08/28 10:21:05;;;;;;;0.20;0.20;;;;;;;17.23;45.61;94972.66;6233769;28;20125;-68
2023/08/28 10:24:10;;;;;;;1.15;0.20;;;;;;;17.25;46.17;94960.03;6234400;28;20068;-72
2023/08/28 10:27:16;;;;;;;0.22;0.22;;;;;;;17.49;45.17;94986.28;6236644;28;20099;-73
2023/08/28 10:30:22;;;;;;;0.32;0.30;;;;;;;18.31;44.16;94979.66;6234571;28;20037;-75
2023/08/28 10:33:29;;;;;;;0.68;0.38;;;;;;;18.83;44.17;94972.25;6234603;28;20092;-74
2023/08/28 10:36:36;;;;;;;0.30;0.30;;;;;;;20.50;41.12;94976.09;6230517;28;20413;-74
2023/08/28 10:39:43;;;;;;;0.73;0.20;;;;;;;21.83;38.90;94976.50;6229173;28;20124;-75
2023/08/28 10:42:53;;;;;;;0.35;0.20;;;;;;;22.49;37.66;94996.63;6231903;28;20561;-69
2023/08/28 10:46:03;;;;;;;0.15;0.10;;;;;;;21.80;36.21;94986.78;6235195;28;20038;-75
2023/08/28 10:49:06;;;;;;;0.15;0.10;;;;;;;21.25;37.13;94974.69;6223860;28;20156;-73
2023/08/28 10:52:07;;;;;;;0.30;0.28;;;;;;;20.96;35.34;94949.28;6224957;28;20451;-74
2023/08/28 10:55:10;;;;;;;1.00;0.10;;;;;;;21.44;35.65;94962.28;6241142;28;20041;-72
2023/08/28 10:58:11;;;;;;;0.30;0.28;;;;;;;21.21;35.38;94951.28;6243760;28;20049;-69
2023/08/28 11:01:17;;;;;;;1.20;0.20;;;;;;;20.19;36.64;94966.88;6239165;28;20053;-71
2023/08/28 11:04:24;;;;;;;0.60;0.40;;;;;;;19.85;36.99;94947.34;6246947;28;20057;-71
2023/08/28 11:07:30;;;;;;;0.40;0.20;;;;;;;21.41;34.55;94967.25;6269131;28;20045;-71
2023/08/28 11:10:33;;;;;;;0.15;0.15;;;;;;;22.38;32.48;94967.88;6259841;28;20048;-71
2023/08/28 11:13:59;;;;;;;0.10;0.10;;;;;;;21.45;33.50;94963.94;6265113;28;20040;-71
2023/08/28 11:17:17;;;;;;;0.20;0.20;;;;;;;19.70;35.57;94954.69;6266939;28;20037;-70
2023/08/28 11:20:25;;;;;;;0.52;0.20;;;;;;;18.83;37.79;94967.72;6260413;28;20041;-71
2023/08/28 11:23:34;;;;;;;0.20;0.20;;;;;;;18.50;38.16;94964.84;6261453;28;20045;-71
2023/08/28 11:26:43;;;;;;;0.30;0.30;;;;;;;18.10;38.33;94958.41;6247682;28;20051;-70
2023/08/28 11:29:47;;;;;;;0.60;0.20;;;;;;;17.61;39.36;94959.19;6261247;28;20571;-70
2023/08/28 11:32:53;;;;;;;1.02;0.38;;;;;;;17.99;39.68;94948.28;6262557;28;20518;-71
2023/08/28 11:36:03;;;;;;;1.65;0.77;;;;;;;19.19;37.84;94953.34;6245673;28;20866;-70
2023/08/28 11:39:06;;;;;;;0.98;0.68;;;;;;;19.44;37.64;94950.13;6262507;28;20049;-73
2023/08/28 11:42:12;;;;;;;0.50;0.40;;;;;;;20.19;35.83;94938.31;6261295;28;20535;-69
2023/08/28 11:45:23;;;;;;;0.40;0.20;;;;;;;21.17;34.67;94947.38;6263351;28;20068;-69
2023/08/28 11:48:38;;;;;;;0.20;0.20;;;;;;;21.39;32.86;94951.41;6255292;28;20048;-68
2023/08/28 11:51:40;;;;;;;2.45;0.40;;;;;;;21.76;31.85;94943.56;6267511;28;20455;-69
2023/08/28 11:54:43;;;;;;;0.20;0.20;;;;;;;21.86;31.26;94938.56;6273089;28;20435;-69
2023/08/28 11:57:47;;;;;;;0.65;0.38;;;;;;;21.60;31.22;94949.44;6272517;28;20122;-68
2023/08/28 12:00:51;;;;;;;0.28;0.13;;;;;;;20.22;33.80;94947.78;6255083;28;20052;-68
2023/08/28 12:03:55;;;;;;;1.00;0.30;;;;;;;19.13;35.97;94947.97;6250506;28;20100;-68
2023/08/28 12:07:01;;;;;;;0.30;0.30;;;;;;;18.37;36.97;94949.59;6223446;28;20181;-68
2023/08/28 12:10:06;;;;;;;0.28;0.20;;;;;;;17.73;38.12;94947.84;6224471;28;20196;-69
2023/08/28 12:13:17;;;;;;;0.70;0.60;;;;;;;17.29;38.97;94945.34;6205815;28;20050;-69
2023/08/28 12:16:23;;;;;;;0.30;0.30;;;;;;;17.07;38.95;94939.19;6231138;28;20046;-69
2023/08/28 12:19:25;;;;;;;0.45;0.35;;;;;;;16.71;39.96;94947.09;6227606;28;20045;-68
2023/08/28 12:22:27;;;;;;;0.20;0.17;;;;;;;16.28;40.68;94946.91;6241214;28;20064;-68
2023/08/28 12:25:40;;;;;;;1.80;0.50;;;;;;;15.87;41.28;94949.91;6213095;28;20543;-70
2023/08/28 12:28:51;;;;;;;0.75;0.32;;;;;;;15.61;41.93;94952.91;6235270;28;20050;-70
2023/08/28 12:31:55;;;;;;;0.38;0.30;;;;;;;15.44;41.95;94954.88;6229703;28;20057;-71
2023/08/28 12:35:10;;;;;;;0.55;0.30;;;;;;;15.41;41.78;94952.56;6232424;28;20400;-69
2023/08/28 12:38:16;;;;;;;0.52;0.30;;;;;;;15.43;42.07;94942.63;6239062;28;20041;-68
2023/08/28 12:41:20;;;;;;;0.63;0.40;;;;;;;15.61;41.72;94948.44;6232766;28;20053;-70
2023/08/28 12:44:27;;;;;;;1.02;0.30;;;;;;;15.60;41.72;94949.44;6233210;28;20050;-71
2023/08/28 12:47:31;;;;;;;0.35;0.30;;;;;;;15.58;41.47;94956.75;6230272;28;20049;-71
2023/08/28 12:50:35;;;;;;;0.70;0.40;;;;;;;15.55;41.62;94954.47;6238256;28;20042;-71
2023/08/28 12:53:38;;;;;;;0.32;0.30;;;;;;;15.64;41.36;94964.00;6236205;28;20057;-71
2023/08/28 12:56:42;;;;;;;0.65;0.40;;;;;;;15.40;41.54;94956.19;6234560;28;20397;-72
2023/08/28 12:59:46;;;;;;;0.73;0.50;;;;;;;15.29;42.63;94968.06;6224168;28;20057;-73
2023/08/28 13:02:50;;;;;;;2.70;0.70;;;;;;;15.23;43.51;94958.97;6240111;28;20037;-71
2023/08/28 13:05:51;;;;;;;0.50;0.50;;;;;;;15.41;43.55;94964.00;6252074;28;20108;-71
2023/08/28 13:08:55;;;;;;;3.45;2.45;;;;;;;15.33;43.26;94963.22;6260696;28;20049;-75
2023/08/28 13:12:02;;;;;;;3.08;2.13;;;;;;;15.17;43.52;94967.63;6252660;28;20132;-70
2023/08/28 13:15:04;;;;;;;1.58;1.25;;;;;;;15.33;43.53;94964.03;6248309;28;20041;-70
2023/08/28 13:18:08;;;;;;;0.73;0.45;;;;;;;15.88;42.55;94967.47;6267571;28;20045;-70
2023/08/28 13:21:10;;;;;;;0.50;0.40;;;;;;;16.09;41.80;94964.97;6252650;28;20492;-71
2023/08/28 13:24:13;;;;;;;0.60;0.30;;;;;;;16.32;41.52;94966.75;6258842;28;20516;-69
2023/08/28 13:27:14;;;;;;;0.30;0.30;;;;;;;16.26;41.37;94962.16;6261258;28;20508;-72
2023/08/28 13:30:16;;;;;;;1.20;0.45;;;;;;;16.08;41.50;94967.81;6266531;28;20049;-72
2023/08/28 13:33:24;;;;;;;0.70;0.60;;;;;;;15.48;42.00;94972.06;6255452;28;20415;-71
2023/08/28 13:36:29;;;;;;;0.40;0.40;;;;;;;14.89;42.85;94982.31;6245996;28;20045;-72
2023/08/28 13:39:35;;;;;;;2.35;0.70;;;;;;;14.59;43.19;94982.09;6259585;28;20087;-71
2023/08/28 13:42:36;;;;;;;1.02;0.75;;;;;;;14.34;43.89;94974.19;6247717;28;20050;-71
2023/08/28 13:45:41;;;;;;;1.40;1.17;;;;;;;14.10;44.42;94976.91;6248798;28;20055;-71
2023/08/28 13:48:42;;;;;;;3.75;1.75;;;;;;;13.88;45.07;94976.59;6261736;28;20025;-72
2023/08/28 13:51:43;;;;;;;6.07;2.47;;;;;;;13.73;45.83;94972.97;6262506;28;20408;-72
2023/08/28 13:54:49;;;;;;;4.18;3.00;;;;;;;13.59;46.21;94976.28;6267662;28;20045;-71
2023/08/28 13:57:56;;;;;;;2.10;1.55;;;;;;;13.51;46.18;94985.00;6263110;28;20147;-73
2023/08/28 14:01:04;;;;;;;1.02;0.80;;;;;;;13.54;45.89;94973.28;6266733;28;20049;-72
2023/08/28 14:04:11;;;;;;;1.48;0.85;;;;;;;13.55;46.08;94977.56;6240766;28;20050;-72
2023/08/28 14:07:16;;;;;;;2.75;0.82;;;;;;;13.30;46.46;94977.53;6253323;28;20588;-72
2023/08/28 14:10:23;;;;;;;1.60;1.10;;;;;;;13.15;47.18;94981.78;6261299;28;20137;-73
2023/08/28 14:13:30;;;;;;;1.80;1.10;;;;;;;13.27;47.12;94974.41;6259810;28;20045;-71
2023/08/28 14:16:31;;;;;;;4.20;1.80;;;;;;;13.35;46.47;94983.16;6261097;28;20055;-67
2023/08/28 14:19:33;;;;;;;0.63;0.63;;;;;;;13.31;46.58;94986.31;6264707;28;20056;-65
2023/08/28 14:22:37;;;;;;;1.65;0.30;;;;;;;13.37;46.45;94985.66;6260231;28;20190;-69
2023/08/28 14:25:46;;;;;;;0.32;0.30;;;;;;;13.19;47.28;94985.72;6257104;28;20036;-76
2023/08/28 14:28:48;;;;;;;0.57;0.50;;;;;;;12.95;48.19;94987.31;6257907;28;20044;-69
2023/08/28 14:31:49;;;;;;;0.30;0.30;;;;;;;12.75;49.15;95001.78;6262899;28;20045;-69
2023/08/28 14:34:53;;;;;;;;;;;;;;;12.61;49.50;94999.72;6255409;28;20423;-69
2023/08/28 14:37:55;;;;;;;0.43;0.30;;;;;;;12.36;50.48;94992.50;6251004;28;19927;-74